Details From MDJB - Dr Joaquin Balaguer Intl
To MDPP - Puerto Plata Gregorio Luperon Intl
Flight Number -
Tags generated
Created
Modified
Stats Distance 79 nm / 146 km
Max Altitude 0 ft / 0 m
Waypoints 3
Social Downloads 2
Likes 0
Share VATSIM

Download

Looking for another format? Having issues loading an existing format? Contact us
Advertisement - Login to hide

Notes

Basic altitude profile: - Ascent Rate: 2500ft/min - Ascent Speed: 250kts - Cruise Altitude: 35000ft - Cruise Speed: 420kts - Descent Rate: 1500ft/min - Descent Speed: 250kts Options: - Use NATs: yes - Use PACOTS: yes - Use low airways: yes - Use high airways: yes

Route

MDJB PTA MDPP

ID Type Via Altitude Latitude Longitude Leg Dist Tot Dist Heading (true) Name
O MDJB APT - 0 ft / 0 m 18.57251˚ -69.98561˚ - 0 nm - Dr Joaquin Balaguer Intl
PTA VOR - 0 ft / 0 m 19.75917˚ -70.57056˚ 78 nm 78 nm 335° / 335° PUERTO PLATA VOR-DME
O MDPP APT - 0 ft / 0 m 19.75790˚ -70.57003˚ 0 nm 78 nm 159° / 159° Puerto Plata Gregorio Luperon Intl

Altitude Profile

Advertisement - Login to hide

MDJB

Details ICAO MDJB (JBQ)
Name Dr Joaquin Balaguer Intl
Region Dominican Republic
Timezone America/Santo_Domingo (UTC-4.0)
Stats Elevation 98 ft / 30 m (AMSL)
Location 18.572512° -69.985608°
Runways 1
Magnetic Variation 11.393° W

METAR

MDJB 141500Z 04006KT 9999 SCT020 30/22 Q1017 NOSIG

Decode

TAF

Not found

Departure Runways

ID Width Length Bearing (true) Bearing (mag) Surface Threshold Offset Overrun Length
01 100 ft / 30 m 5,448 ft / 1,661 m 6.40° 17.79° Asphalt 0 ft / 0 m 90 ft / 27 m
19 100 ft / 30 m 5,448 ft / 1,661 m 186.40° 197.79° Asphalt 0 ft / 0 m 105 ft / 32 m

MDPP

Details ICAO MDPP (POP)
Name Puerto Plata Gregorio Luperon Intl
Region Dominican Republic
Timezone America/Santo_Domingo (UTC-4.0)
Stats Elevation 15 ft / 5 m (AMSL)
Location 19.757900° -70.570035°
Runways 1
Magnetic Variation 11.228° W

METAR

MDPP 141500Z 06010KT 9999 FEW018 27/25 Q1016

Decode

TAF

Not found

Destination Runways

ID Width Length Bearing (true) Bearing (mag) Surface Threshold Offset Overrun Length
08 151 ft / 46 m 10,101 ft / 3,079 m 72.95° 84.18° Asphalt 0 ft / 0 m 0 ft / 0 m
26 151 ft / 46 m 10,101 ft / 3,079 m 252.95° 264.18° Asphalt 0 ft / 0 m 0 ft / 0 m

Popular Alternatives